Data for 02/15/2014

Time Sea-Level Adjusted Pressure Absolute Pressure Temperature Relative Humidity Dew Point   
(mb) (inHg) (mb) (inHg) (C) (F) (%) (C) (F)
00:05 1012 29.88 841 24.83 2.5 36.4 68 -2.9 26.7
00:10 1011 29.85 841 24.83 2.5 36.6 67 -3 26.6
00:15 1011 29.85 841 24.83 2.6 36.6 67 -3 26.6
00:20 1012 29.88 841 24.83 2.6 36.6 68 -2.8 27
00:25 1012 29.88 841 24.83 2.5 36.4 69 -2.6 27.3
00:30 1012 29.88 841 24.83 2.4 36.3 70 -2.5 27.4
00:35 1012 29.88 841 24.83 2.3 36.1 69 -2.7 27.1
00:40 1012 29.88 841 24.83 2.2 36 69 -2.9 26.8
00:45 1012 29.88 841 24.83 2.3 36.1 68 -2.9 26.7
00:50 1012 29.88 841 24.83 2.2 36 67 -3.3 26.1
00:55 1012 29.88 841 24.83 2.2 36 65 -3.6 25.5
01:00 1012 29.88 841 24.83 2.2 35.9 63 -4.1 24.7
01:05 1012 29.88 842 24.86 2.3 36.1 62 -4.3 24.2
01:10 1012 29.88 842 24.86 2.3 36.2 62 -4.1 24.6
01:15 1012 29.88 841 24.83 2.3 36.2 63 -4 24.7
01:20 1012 29.88 842 24.86 2.3 36.1 63 -4.1 24.6
01:25 1012 29.88 842 24.86 2.2 36 63 -4.1 24.5
01:30 1012 29.88 842 24.86 2.2 35.9 63 -4.2 24.5
01:35 1012 29.88 842 24.86 2.2 36 64 -4 24.8
01:40 1012 29.88 842 24.86 2.2 35.9 65 -3.8 25.1
01:45 1012 29.88 842 24.86 2 35.7 66 -3.5 25.6
01:50 1012 29.88 842 24.86 1.8 35.3 68 -3.4 25.9
01:55 1012 29.88 842 24.86 1.6 34.9 69 -3.5 25.8
02:00 1013 29.91 842 24.86 1.6 34.9 69 -3.4 25.8
02:05 1013 29.91 842 24.86 1.7 35 70 -3.3 26.1
02:10 1013 29.91 842 24.86 1.7 35 71 -3.1 26.4
02:15 1013 29.91 843 24.89 1.6 34.8 72 -2.9 26.7
02:20 1013 29.91 843 24.89 1.4 34.5 73 -2.9 26.8
02:25 1013 29.91 843 24.89 1.2 34.2 75 -2.8 27
02:30 1013 29.91 842 24.86 1 33.8 74 -3.1 26.5
02:35 1013 29.91 842 24.86 1 33.7 74 -3.1 26.3
02:40 1013 29.91 842 24.86 0.9 33.6 73 -3.4 26
02:45 1013 29.91 842 24.86 1 33.8 72 -3.4 25.8
02:50 1013 29.91 842 24.86 1.1 34 72 -3.4 25.9
02:55 1013 29.91 842 24.86 1.1 34 73 -3.2 26.3
03:00 1013 29.91 842 24.86 1 33.8 74 -3.1 26.3
03:05 1013 29.91 842 24.86 0.8 33.5 74 -3.3 26.1
03:10 1013 29.91 842 24.86 0.7 33.3 71 -3.9 24.9
03:15 1013 29.91 842 24.86 0.7 33.2 72 -3.9 25.1
03:20 1013 29.91 842 24.86 0.7 33.3 67 -4.7 23.6
03:25 1013 29.91 842 24.86 1 33.8 65 -4.9 23.1
03:30 1013 29.91 843 24.89 1.2 34.1 60 -5.7 21.8
03:35 1013 29.91 843 24.89 1.4 34.5 59 -5.7 21.8
03:40 1013 29.91 843 24.89 1.4 34.6 58 -6 21.2
03:45 1013 29.91 843 24.89 1.4 34.6 55 -6.7 19.9
03:50 1013 29.91 842 24.86 1.4 34.6 57 -6.2 20.8
03:55 1013 29.91 843 24.89 1.3 34.3 57 -6.4 20.5
04:00 1013 29.91 842 24.86 1.3 34.3 57 -6.3 20.7
04:05 1013 29.91 842 24.86 1.2 34.2 58 -6.3 20.7
04:10 1013 29.91 843 24.89 1.1 33.9 59 -6.1 20.9
04:15 1014 29.94 843 24.89 0.9 33.7 59 -6.2 20.9
04:20 1014 29.94 843 24.89 1 33.8 57 -6.5 20.3
04:25 1014 29.94 843 24.89 1 33.9 56 -6.7 20
04:30 1014 29.94 843 24.89 1.1 34 60 -5.8 21.5
04:35 1014 29.94 843 24.89 0.5 33 63 -5.7 21.8
04:40 1014 29.94 844 24.92 0.2 32.3 64 -5.9 21.3
04:45 1014 29.94 844 24.92 0.3 32.6 59 -6.7 19.9
04:50 1015 29.97 844 24.92 0.5 32.9 60 -6.3 20.7
04:55 1015 29.97 844 24.92 0.5 32.9 61 -6.2 20.8
05:00 1015 29.97 844 24.92 0.5 33 61 -6.2 20.9
05:05 1015 29.97 844 24.92 0.5 32.9 61 -6.3 20.7
05:10 1015 29.97 844 24.92 0.5 32.9 61 -6.2 20.9
05:15 1015 29.97 844 24.92 0.4 32.7 60 -6.4 20.4
05:20 1015 29.97 844 24.92 0.4 32.8 61 -6.3 20.7
05:25 1015 29.97 844 24.92 0.3 32.6 61 -6.3 20.6
05:30 1015 29.97 844 24.92 0.3 32.5 62 -6.3 20.7
05:35 1015 29.97 844 24.92 0.2 32.4 62 -6.3 20.7
05:40 1015 29.97 844 24.92 0.2 32.4 61 -6.4 20.4
05:45 1015 29.97 844 24.92 0.1 32.3 62 -6.2 20.8
05:50 1015 29.97 845 24.95 0.1 32.2 62 -6.3 20.6
05:55 1015 29.97 844 24.92 0.1 32.2 62 -6.3 20.7
06:00 1015 29.97 844 24.92 0.1 32.2 62 -6.3 20.7
06:05 1015 29.97 844 24.92 0.2 32.3 60 -6.6 20.1
06:10 1015 29.97 844 24.92 0.3 32.6 60 -6.5 20.4
06:15 1015 29.97 844 24.92 0.3 32.6 60 -6.6 20.1
06:20 1015 29.97 844 24.92 0.3 32.6 59 -6.6 20
06:25 1015 29.97 845 24.95 0.3 32.6 61 -6.4 20.5
06:30 1016 30 845 24.95 0.3 32.5 61 -6.3 20.6
06:35 1016 30 845 24.95 0.2 32.3 62 -6.4 20.5
06:40 1016 30 845 24.95 -0 32 65 -5.7 21.7
06:45 1016 30 845 24.95 -0.3 31.4 66 -6 21.2
06:50 1016 30 845 24.95 -0.5 31.1 66 -6.1 21.1
06:55 1016 30 845 24.95 -0.5 31 66 -6.2 20.9
07:00 1016 30 845 24.95 -0.5 31.1 65 -6.2 20.8
07:05 1016 30 845 24.95 -0.3 31.5 64 -6.3 20.7
07:10 1016 30 845 24.95 -0.1 31.8 63 -6.5 20.4
07:15 1016 30 845 24.95 -0.1 31.8 64 -6.2 20.9
07:20 1016 30 845 24.95 -0.6 31 68 -5.8 21.6
07:25 1016 30 845 24.95 -0.9 30.3 67 -6.3 20.6
07:30 1016 30 845 24.95 -0.8 30.6 64 -6.7 20
07:35 1016 30 845 24.95 -0.6 30.9 66 -6.2 20.8
07:40 1016 30 845 24.95 -0.6 31 66 -6.2 20.9
07:45 1016 30 845 24.95 -0.6 31 64 -6.6 20.1
07:50 1016 30 845 24.95 -0.4 31.4 62 -6.8 19.8
07:55 1016 30 845 24.95 -0.2 31.7 60 -7 19.4
08:00 1016 30 845 24.95 -0.1 31.9 63 -6.2 20.8
08:05 1016 30 845 24.95 -0.6 30.9 63 -6.7 20
08:10 1016 30 845 24.95 -0.7 30.8 62 -7.1 19.1
08:15 1016 30 845 24.95 -0.5 31.2 59 -7.5 18.6
08:20 1016 30 845 24.95 -0.2 31.6 60 -7.1 19.2
08:25 1016 30 845 24.95 -0.5 31.2 61 -7 19.4
08:30 1016 30 845 24.95 -0.6 31 62 -6.9 19.5
08:35 1016 30 845 24.95 -1 30.3 66 -6.5 20.3
08:40 1016 30 845 24.95 -1.4 29.4 68 -6.5 20.3
08:45 1016 30 846 24.98 -1.7 29 69 -6.6 20.2
08:50 1017 30.03 846 24.98 -1.6 29.2 68 -6.7 20
08:55 1017 30.03 846 24.98 -1.4 29.5 68 -6.6 20.2
09:00 1017 30.03 846 24.98 -1.5 29.3 66 -7.1 19.2
09:05 1017 30.03 846 24.98 -1 30.2 61 -7.6 18.3
09:10 1017 30.03 846 24.98 -0.6 31 62 -6.9 19.5
09:15 1017 30.03 846 24.98 -0.6 31 62 -7 19.3
09:20 1017 30.03 846 24.98 -0.3 31.4 61 -7 19.4
09:25 1017 30.03 846 24.98 0.3 32.5 57 -7.1 19.2
09:30 1017 30.03 846 24.98 0.7 33.3 57 -6.9 19.7
09:35 1017 30.03 846 24.98 0.9 33.5 57 -6.8 19.8
09:40 1017 30.03 846 24.98 0.5 32.9 58 -6.9 19.6
09:45 1017 30.03 846 24.98 0.2 32.3 58 -7.1 19.2
09:50 1017 30.03 846 24.98 -0 31.9 59 -7.1 19.2
09:55 1017 30.03 846 24.98 0.1 32.1 58 -7.2 19.1
10:00 1017 30.03 846 24.98 0.4 32.6 58 -6.9 19.5
10:05 1017 30.03 846 24.98 0.5 33 58 -6.8 19.8
10:10 1017 30.03 846 24.98 0.9 33.7 57 -6.6 20.1
10:15 1017 30.03 846 24.98 1 33.7 57 -6.7 19.9
10:20 1017 30.03 846 24.98 1 33.8 56 -6.8 19.8
10:25 1017 30.03 846 24.98 1 33.8 57 -6.5 20.3
10:30 1017 30.03 846 24.98 0.9 33.6 56 -6.9 19.5
10:35 1017 30.03 846 24.98 1.1 34 56 -6.8 19.8
10:40 1017 30.03 846 24.98 1.5 34.6 55 -6.7 19.9
10:45 1017 30.03 846 24.98 1.6 34.9 54 -6.8 19.7
10:50 1017 30.03 846 24.98 1.8 35.3 53 -6.6 20.1
10:55 1017 30.03 846 24.98 2.1 35.7 52 -6.8 19.7
11:00 1017 30.03 846 24.98 2.1 35.7 51 -7 19.5
11:05 1016 30 846 24.98 1.8 35.3 50 -7.4 18.6
11:10 1016 30 846 24.98 2.7 36.8 49 -7.1 19.3
11:15 1016 30 846 24.98 3.9 39 43 -7.5 18.4
11:20 1016 30 846 24.98 3.7 38.7 45 -7.1 19.3
11:25 1016 30 846 24.98 3.8 38.8 44 -7.3 18.8
11:30 1016 30 846 24.98 3.7 38.6 44 -7.5 18.5
11:35 1016 30 846 24.98 3.6 38.5 42 -8.1 17.4
11:40 1016 30 846 24.98 3.6 38.5 42 -8.2 17.2
11:45 1016 30 846 24.98 3.8 38.9 40 -8.5 16.8
11:50 1016 30 845 24.95 3.9 39 39 -8.7 16.3
11:55 1016 30 845 24.95 4.2 39.5 39 -8.5 16.7
12:00 1016 30 845 24.95 4.7 40.5 38 -8.3 17
12:05 1016 30 845 24.95 4.9 40.8 37 -8.5 16.7
12:10 1016 30 845 24.95 4.9 40.7 40 -7.6 18.4
12:15 1016 30 845 24.95 4.8 40.7 39 -8 17.6
12:20 1016 30 845 24.95 4.7 40.4 37 -8.9 15.9
12:25 1016 30 845 24.95 4.9 40.8 37 -8.6 16.5
12:30 1016 30 845 24.95 5.3 41.5 34 -9.3 15.3
12:35 1016 30 845 24.95 5.4 41.7 35 -8.8 16.1
12:40 1016 30 845 24.95 5.6 42.1 35 -8.5 16.6
12:45 1016 30 845 24.95 5.8 42.4 31 -9.9 14.1
12:50 1016 30 845 24.95 6.2 43.1 33 -8.9 15.9
12:55 1016 30 845 24.95 6.5 43.8 32 -9 15.7
13:00 1015 29.97 845 24.95 6.9 44.3 31 -9 15.9
13:05 1015 29.97 844 24.92 6.4 43.5 34 -8.3 17
13:10 1015 29.97 844 24.92 6.5 43.7 32 -9.2 15.5
13:15 1015 29.97 844 24.92 6.5 43.7 32 -9 15.8
13:20 1015 29.97 844 24.92 6.5 43.6 32 -9 15.8
13:25 1015 29.97 844 24.92 7 44.5 31 -8.9 16
13:30 1015 29.97 844 24.92 6.7 44.1 30 -9.7 14.5
13:35 1015 29.97 844 24.92 6.6 43.8 31 -9.5 14.9
13:40 1015 29.97 844 24.92 7.5 45.6 32 -8 17.6
13:45 1014 29.94 844 24.92 7.8 46.1 30 -8.6 16.5
13:50 1014 29.94 844 24.92 7.6 45.6 31 -8.3 17
13:55 1014 29.94 843 24.89 6.7 44.1 31 -9.4 15.1
14:00 1014 29.94 843 24.89 8.1 46.5 28 -9.6 14.7
14:05 1014 29.94 843 24.89 7.7 45.8 29 -9.1 15.7
14:10 1014 29.94 843 24.89 7.6 45.7 29 -9.3 15.3
14:15 1014 29.94 843 24.89 7.6 45.6 30 -9 15.8
14:20 1014 29.94 843 24.89 7.4 45.3 29 -9.6 14.7
14:25 1014 29.94 843 24.89 7.8 46 28 -9.6 14.7
14:30 1014 29.94 843 24.89 7.7 45.9 28 -9.5 14.9
14:35 1014 29.94 843 24.89 8.1 46.5 27 -9.9 14.2
14:40 1013 29.91 843 24.89 7.1 44.8 29 -9.6 14.7
14:45 1013 29.91 843 24.89 7 44.6 29 -9.7 14.5
14:50 1013 29.91 842 24.86 7.9 46.1 28 -9.6 14.6
14:55 1013 29.91 842 24.86 8.2 46.8 27 -9.5 14.8
15:00 1013 29.91 842 24.86 7.2 45 28 -10.1 13.8
15:05 1013 29.91 842 24.86 7.6 45.6 27 -10.4 13.3
15:10 1013 29.91 842 24.86 7 44.6 28 -10.2 13.6
15:15 1013 29.91 842 24.86 6.8 44.2 28 -10.4 13.3
15:20 1013 29.91 842 24.86 6.8 44.2 30 -9.6 14.7
15:25 1013 29.91 842 24.86 6.5 43.6 29 -10.2 13.7
15:30 1013 29.91 842 24.86 6.4 43.5 30 -9.9 14.2
15:35 1012 29.88 842 24.86 6.9 44.4 29 -10.1 13.9
15:40 1012 29.88 842 24.86 6.9 44.4 29 -10.1 13.9
15:45 1012 29.88 841 24.83 7.4 45.4 29 -9.4 15.1
15:50 1012 29.88 841 24.83 7.9 46.1 28 -9.5 15
15:55 1012 29.88 841 24.83 7.6 45.8 33 -7.8 18
16:00 1012 29.88 841 24.83 7.4 45.3 34 -7.6 18.4
16:05 1012 29.88 841 24.83 7.1 44.8 34 -7.6 18.4
16:10 1012 29.88 841 24.83 6.6 43.8 35 -7.7 18.2
16:15 1012 29.88 841 24.83 6.2 43.2 38 -7.1 19.2
16:20 1012 29.88 841 24.83 6 42.9 39 -6.9 19.5
16:25 1012 29.88 841 24.83 5.8 42.5 40 -6.9 19.6
16:30 1012 29.88 841 24.83 5.7 42.3 41 -6.5 20.4
16:35 1012 29.88 841 24.83 5.7 42.2 42 -6.4 20.6
16:40 1012 29.88 841 24.83 5.6 42 43 -6.1 21
16:45 1012 29.88 841 24.83 5.4 41.7 42 -6.4 20.5
16:50 1012 29.88 841 24.83 5.3 41.5 44 -6.1 21
16:55 1012 29.88 841 24.83 5 41 44 -6.1 21
17:00 1012 29.88 841 24.83 5 40.9 45 -6.1 21
17:05 1012 29.88 841 24.83 4.8 40.6 45 -6.2 20.9
17:10 1012 29.88 841 24.83 4.5 40 45 -6.4 20.4
17:15 1012 29.88 841 24.83 4.5 40.1 46 -6 21.2
17:20 1012 29.88 841 24.83 4.7 40.5 46 -5.9 21.4
17:25 1012 29.88 841 24.83 4.3 39.7 47 -6.1 21
17:30 1012 29.88 841 24.83 4.2 39.6 46 -6.4 20.5
17:35 1011 29.85 841 24.83 4 39.2 48 -6 21.1
17:40 1011 29.85 840 24.81 4 39.2 48 -6 21.2
17:45 1011 29.85 840 24.81 4.1 39.3 50 -5.4 22.2
17:50 1011 29.85 840 24.81 4.1 39.4 49 -5.5 22
17:55 1011 29.85 840 24.81 3.8 38.8 52 -5.1 22.7
18:00 1011 29.85 840 24.81 3.6 38.4 52 -5.3 22.4
18:05 1011 29.85 840 24.81 3.6 38.4 52 -5.3 22.5
18:10 1011 29.85 840 24.81 3.6 38.4 55 -4.5 23.8
18:15 1011 29.85 840 24.81 3.8 38.8 58 -3.7 25.4
18:20 1011 29.85 840 24.81 3.9 39 63 -2.5 27.5
18:25 1010 29.83 840 24.81 3.8 38.9 66 -2 28.4
18:30 1010 29.83 840 24.81 3.9 39 67 -1.7 29
18:35 1010 29.83 839 24.78 4 39.2 68 -1.5 29.4
18:40 1010 29.83 839 24.78 4 39.2 68 -1.4 29.5
18:45 1010 29.83 839 24.78 4 39.2 68 -1.4 29.4
18:50 1010 29.83 839 24.78 4.1 39.4 68 -1.3 29.6
18:55 1010 29.83 839 24.78 4.2 39.5 66 -1.5 29.3
19:00 1010 29.83 839 24.78 4.4 39.9 67 -1.2 29.8
19:05 1010 29.83 839 24.78 4.4 39.9 67 -1.2 29.9
19:10 1010 29.83 839 24.78 4.5 40.1 67 -1.1 30.1
19:15 1010 29.83 839 24.78 4.5 40.1 67 -1.1 30.1
19:20 1010 29.83 839 24.78 4.5 40 67 -1.1 30.1
19:25 1010 29.83 839 24.78 4.4 39.9 68 -1 30.2
19:30 1010 29.83 839 24.78 4.4 39.9 67 -1.1 29.9
19:35 1010 29.83 839 24.78 4.4 40 67 -1.2 29.9
19:40 1010 29.83 839 24.78 4.5 40.1 67 -1.1 29.9
19:45 1010 29.83 839 24.78 4.4 40 67 -1.2 29.9
19:50 1010 29.83 839 24.78 4.4 40 67 -1.2 29.8
19:55 1010 29.83 839 24.78 4.5 40.1 66 -1.2 29.8
20:00 1010 29.83 839 24.78 4.6 40.3 65 -1.3 29.6
20:05 1010 29.83 839 24.78 4.7 40.4 66 -1.2 29.9
20:10 1010 29.83 839 24.78 4.5 40.1 66 -1.2 29.8
20:15 1010 29.83 839 24.78 4.5 40.1 66 -1.3 29.6
20:20 1010 29.83 839 24.78 4.2 39.5 66 -1.6 29
20:25 1010 29.83 839 24.78 3.8 38.8 65 -2.2 28
20:30 1010 29.83 839 24.78 3.6 38.5 65 -2.2 28
20:35 1010 29.83 839 24.78 3.6 38.5 68 -1.7 29
20:40 1009 29.8 839 24.78 3.9 39 68 -1.5 29.4
20:45 1009 29.8 839 24.78 4.1 39.3 68 -1.3 29.7
20:50 1009 29.8 839 24.78 4.1 39.4 68 -1.3 29.7
20:55 1009 29.8 839 24.78 4.2 39.5 67 -1.3 29.7
21:00 1009 29.8 839 24.78 4.3 39.7 67 -1.2 29.8
21:05 1009 29.8 838 24.75 4.3 39.7 67 -1.3 29.7
21:10 1009 29.8 838 24.75 4.3 39.7 67 -1.3 29.7
21:15 1009 29.8 839 24.78 4.3 39.7 68 -1.2 29.9
21:20 1009 29.8 838 24.75 4.2 39.5 67 -1.3 29.6
21:25 1009 29.8 838 24.75 4.3 39.7 67 -1.2 29.8
21:30 1009 29.8 838 24.75 4.2 39.6 68 -1.2 29.9
21:35 1009 29.8 838 24.75 4.2 39.6 67 -1.3 29.7
21:40 1009 29.8 838 24.75 4.3 39.8 67 -1.3 29.7
21:45 1009 29.8 838 24.75 4.4 40 66 -1.3 29.7
21:50 1009 29.8 838 24.75 4.4 39.9 67 -1.3 29.7
21:55 1009 29.8 838 24.75 4.3 39.7 67 -1.2 29.8
22:00 1009 29.8 838 24.75 4.2 39.6 68 -1.2 29.9
22:05 1009 29.8 838 24.75 4.1 39.3 68 -1.3 29.7
22:10 1008 29.77 838 24.75 4 39.3 69 -1.2 29.9
22:15 1008 29.77 838 24.75 4.1 39.3 67 -1.6 29.2
22:20 1008 29.77 837 24.72 4.6 40.2 64 -1.7 29
22:25 1008 29.77 837 24.72 4.9 40.7 64 -1.4 29.5
22:30 1008 29.77 837 24.72 4.7 40.4 66 -1.2 29.9
22:35 1008 29.77 837 24.72 4.3 39.7 67 -1.2 29.8
22:40 1008 29.77 837 24.72 4.1 39.3 68 -1.3 29.6
22:45 1008 29.77 837 24.72 4.5 40.1 63 -1.9 28.6
22:50 1008 29.77 837 24.72 4.9 40.8 64 -1.4 29.4
22:55 1008 29.77 837 24.72 4.6 40.3 64 -1.5 29.2
23:00 1008 29.77 837 24.72 4.6 40.3 63 -1.9 28.6
23:05 1008 29.77 837 24.72 5.4 41.8 60 -1.7 28.9
23:10 1008 29.77 837 24.72 5.5 41.8 59 -2 28.4
23:15 1007 29.74 837 24.72 5.7 42.2 57 -2.2 28
23:20 1007 29.74 837 24.72 5.6 42.1 59 -1.8 28.7
23:25 1007 29.74 836 24.69 5.3 41.6 58 -2.2 28
23:30 1007 29.74 836 24.69 5.6 42 57 -2.3 27.9
23:35 1007 29.74 836 24.69 5.6 42.1 57 -2.2 28.1
23:40 1007 29.74 836 24.69 5.6 42 57 -2.2 28
23:45 1007 29.74 836 24.69 5.7 42.2 57 -2.2 28
23:50 1007 29.74 836 24.69 5.8 42.4 56 -2.3 27.8
23:55 1007 29.74 836 24.69 5.8 42.4 54 -2.9 26.9
24:00 1007 29.74 836 24.69 6.2 43.2 53 -2.7 27.2